Time;durP1;ratioP1;P1;durP2;ratioP2;P2;SDS_P1;SDS_P2;PMS_P1;PMS_P2;Temp;Humidity;BMP_temperature;BMP_pressure;BME280_temperature;BME280_humidity;BME280_pressure;Samples;Min_cycle;Max_cycle;Signal;HPM_P1;HPM_P2
2023/06/27 00:02:14;;;;;;;;;1.67;1.67;;;;;19.45;43.18;101987.03;4950289;28;45895;-70
2023/06/27 00:04:40;;;;;;;;;2.67;2.67;;;;;19.36;42.84;101984.28;4943717;28;45311;-71
2023/06/27 00:07:05;;;;;;;;;4.00;2.00;;;;;19.37;44.06;101986.97;4949874;28;45414;-72
2023/06/27 00:09:30;;;;;;;;;2.67;2.00;;;;;19.26;43.93;101971.69;4944443;28;46229;-72
2023/06/27 00:11:57;;;;;;;;;4.00;2.67;;;;;19.31;43.79;101978.88;4943693;28;47355;-72
2023/06/27 00:14:22;;;;;;;;;2.00;2.00;;;;;19.26;44.62;101982.41;4947570;28;45286;-72
2023/06/27 00:16:48;;;;;;;;;1.67;1.67;;;;;19.24;42.31;101987.78;4947837;28;45463;-72
2023/06/27 00:19:14;;;;;;;;;2.67;2.67;;;;;19.15;42.94;101982.34;4950102;28;45413;-71
2023/06/27 00:21:39;;;;;;;;;1.00;1.00;;;;;19.05;42.75;101976.03;4946621;28;45809;-71
2023/06/27 00:24:06;;;;;;;;;1.67;1.67;;;;;18.94;42.50;101959.84;4950281;28;45553;-71
2023/06/27 00:26:31;;;;;;;;;2.33;1.33;;;;;19.07;44.82;101994.78;4948980;28;45357;-71
2023/06/27 00:28:57;;;;;;;;;1.67;1.67;;;;;19.05;44.89;101997.47;4950515;28;53120;-71
2023/06/27 00:31:23;;;;;;;;;2.00;1.00;;;;;19.00;44.41;101991.16;4950105;28;45399;-72
2023/06/27 00:33:48;;;;;;;;;0.67;0.67;;;;;18.94;43.46;101985.75;4951100;28;45405;-71
2023/06/27 00:36:14;;;;;;;;;1.67;1.67;;;;;18.94;44.24;101992.00;4949276;28;45316;-71
2023/06/27 00:38:40;;;;;;;;;1.00;0.67;;;;;18.91;45.48;101986.63;4949422;28;45511;-71
2023/06/27 00:41:05;;;;;;;;;1.00;1.00;;;;;18.88;45.17;101985.69;4940238;28;45392;-71
2023/06/27 00:43:30;;;;;;;;;2.33;1.67;;;;;18.85;45.32;101986.56;4939055;28;45221;-71
2023/06/27 00:45:57;;;;;;;;;3.33;1.33;;;;;18.74;44.30;101970.38;4941550;28;45352;-71
2023/06/27 00:48:23;;;;;;;;;3.33;0.67;;;;;18.78;45.30;101998.09;4949255;28;45453;-71
2023/06/27 00:50:55;;;;;;;;;1.33;1.33;;;;;18.68;44.80;101983.69;4942627;28;45483;-71
2023/06/27 00:53:21;;;;;;;;;2.00;1.00;;;;;18.71;43.69;102001.59;4947169;28;45254;-71
2023/06/27 00:55:46;;;;;;;;;0.67;0.67;;;;;18.55;45.89;101974.63;4945112;28;45443;-71
2023/06/27 00:58:12;;;;;;;;;0.67;0.67;;;;;18.61;44.55;101986.28;4949426;28;45233;-72
2023/06/27 01:00:37;;;;;;;;;1.00;0.67;;;;;18.55;46.62;101981.75;4943610;28;45457;-72
2023/06/27 01:03:03;;;;;;;;;1.00;1.00;;;;;18.53;45.71;101988.88;4949576;28;45318;-71
2023/06/27 01:05:29;;;;;;;;;0.33;0.33;;;;;18.47;44.48;101979.00;4945929;28;45444;-72
2023/06/27 01:08:07;;;;;;;;;0.67;0.67;;;;;18.47;46.80;101988.81;4950373;28;45310;-71
2023/06/27 01:10:46;;;;;;;;;3.00;2.00;;;;;18.43;45.10;101985.22;4947727;28;45534;-71
2023/06/27 01:13:23;;;;;;;;;3.67;1.00;;;;;18.38;46.34;101988.72;4945187;28;45234;-71
2023/06/27 01:15:49;;;;;;;;;2.00;2.00;;;;;18.32;47.29;101984.19;4934452;28;45363;-71
2023/06/27 01:18:15;;;;;;;;;0.00;0.00;;;;;18.32;47.49;101982.41;4952162;28;45394;-71
2023/06/27 01:20:43;;;;;;;;;1.67;0.67;;;;;18.32;46.35;101982.41;4941442;28;46270;-71
2023/06/27 01:23:18;;;;;;;;;2.67;1.67;;;;;18.29;47.02;101992.19;4948601;28;45432;-71
2023/06/27 01:25:43;;;;;;;;;1.33;1.33;;;;;18.27;46.66;101989.50;4942173;28;45310;-72
2023/06/27 01:28:13;;;;;;;;;0.33;0.33;;;;;18.17;47.96;101976.88;4946963;28;45353;-71
2023/06/27 01:30:40;;;;;;;;;2.67;2.67;;;;;18.17;46.43;101971.50;4937576;28;45380;-71
2023/06/27 01:33:11;;;;;;;;;2.33;0.67;;;;;18.18;46.32;101978.69;4942735;28;45383;-71
2023/06/27 01:35:51;;;;;;;;;1.33;1.33;;;;;18.18;45.98;101980.47;4941017;28;45461;-71
2023/06/27 01:38:22;;;;;;;;;3.00;1.00;;;;;18.15;47.14;101978.66;4945371;28;45404;-71
2023/06/27 01:40:51;;;;;;;;;2.00;1.00;;;;;18.12;47.18;101981.28;4939105;28;46403;-71
2023/06/27 01:43:18;;;;;;;;;3.00;2.00;;;;;18.04;48.20;101966.91;4942651;28;45307;-71
2023/06/27 01:45:44;;;;;;;;;1.67;0.67;;;;;18.09;47.95;101975.88;4938804;28;45322;-71
2023/06/27 01:48:10;;;;;;;;;4.00;1.33;;;;;18.02;49.01;101972.25;4950888;28;45719;-71
2023/06/27 01:50:36;;;;;;;;;2.67;2.67;;;;;18.04;47.40;101980.31;4942429;28;46224;-71
2023/06/27 01:53:01;;;;;;;;;1.33;1.33;;;;;17.94;48.57;101967.66;4949818;28;45353;-71
2023/06/27 01:55:27;;;;;;;;;2.67;1.00;;;;;18.00;48.34;101976.66;4943881;28;45503;-71
2023/06/27 01:57:52;;;;;;;;;0.67;0.67;;;;;17.98;49.39;101981.13;4954489;28;45533;-71
2023/06/27 02:00:18;;;;;;;;;2.33;1.33;;;;;17.94;46.55;101981.94;4942340;28;46007;-71
2023/06/27 02:02:43;;;;;;;;;3.00;1.67;;;;;17.80;49.27;101962.13;4952292;28;45298;-71
2023/06/27 02:05:09;;;;;;;;;1.00;0.67;;;;;17.89;49.46;101979.19;4941840;28;46139;-71
2023/06/27 02:07:34;;;;;;;;;1.33;1.33;;;;;17.87;49.36;101978.31;4950873;28;45309;-71
2023/06/27 02:09:59;;;;;;;;;0.00;0.00;;;;;17.84;49.60;101974.66;4944509;28;45454;-71
2023/06/27 02:12:25;;;;;;;;;3.67;2.00;;;;;17.77;48.51;101968.31;4943358;28;45447;-71
2023/06/27 02:14:50;;;;;;;;;1.67;1.67;;;;;17.76;49.01;101968.31;4939223;28;45256;-71
2023/06/27 02:17:16;;;;;;;;;2.67;2.67;;;;;17.79;49.80;101981.75;4939498;28;45291;-71
2023/06/27 02:19:41;;;;;;;;;1.00;1.00;;;;;17.76;50.07;101977.22;4947848;28;45327;-71
2023/06/27 02:22:06;;;;;;;;;4.00;1.00;;;;;17.65;50.54;101966.38;4929401;28;45488;-71
2023/06/27 02:24:32;;;;;;;;;3.67;2.00;;;;;17.70;49.97;101981.56;4950224;28;45284;-71
2023/06/27 02:26:57;;;;;;;;;4.00;2.00;;;;;17.57;50.34;101968.03;4941109;28;45283;-71
2023/06/27 02:29:22;;;;;;;;;1.33;1.33;;;;;17.61;50.41;101971.66;4950995;28;45262;-71
2023/06/27 02:31:48;;;;;;;;;0.67;0.67;;;;;17.63;50.41;101985.94;4941886;28;45270;-71
2023/06/27 02:34:13;;;;;;;;;3.00;1.00;;;;;17.61;50.04;101977.00;4952237;28;45468;-72
2023/06/27 02:36:38;;;;;;;;;1.67;1.67;;;;;17.59;50.79;101979.66;4953418;28;54522;-71
2023/06/27 02:39:04;;;;;;;;;1.33;1.00;;;;;17.50;50.31;101971.47;4943124;28;46337;-72
2023/06/27 02:41:29;;;;;;;;;1.00;1.00;;;;;17.55;51.12;101983.16;4947515;28;45461;-71
2023/06/27 02:43:54;;;;;;;;;4.00;3.00;;;;;17.44;50.98;101974.97;4942415;28;45748;-71
2023/06/27 02:46:20;;;;;;;;;2.00;2.00;;;;;17.53;51.12;101992.03;4941157;28;45397;-71
2023/06/27 02:48:45;;;;;;;;;4.00;2.67;;;;;17.48;51.14;101989.31;4942570;28;46992;-72
2023/06/27 02:51:11;;;;;;;;;4.00;2.33;;;;;17.42;50.53;101983.84;4942548;28;45392;-71
2023/06/27 02:53:36;;;;;;;;;4.00;3.00;;;;;17.39;49.90;101978.44;4944637;28;45169;-71
2023/06/27 02:56:03;;;;;;;;;3.33;2.67;;;;;17.35;50.35;101980.19;4944392;28;45255;-71
2023/06/27 02:58:32;;;;;;;;;3.33;3.33;;;;;17.40;50.83;101993.63;4944421;28;45364;-71
2023/06/27 03:01:03;;;;;;;;;5.33;4.00;;;;;17.28;51.43;101977.38;4938256;28;45378;-71
2023/06/27 03:03:28;;;;;;;;;4.33;3.00;;;;;17.33;52.09;101987.28;4944075;28;45345;-71
2023/06/27 03:05:54;;;;;;;;;5.00;3.00;;;;;17.33;50.75;101984.59;4940175;28;45386;-71
2023/06/27 03:08:19;;;;;;;;;4.00;2.67;;;;;17.25;51.23;101966.66;4944144;28;45310;-72
2023/06/27 03:10:44;;;;;;;;;5.33;2.33;;;;;17.27;50.23;101981.84;4940085;28;45416;-71
2023/06/27 03:13:11;;;;;;;;;2.33;2.33;;;;;17.19;51.92;101963.00;4943594;28;45366;-71
2023/06/27 03:15:36;;;;;;;;;4.00;4.00;;;;;17.23;51.45;101978.22;4940189;28;45506;-71
2023/06/27 03:18:02;;;;;;;;;1.33;1.00;;;;;17.25;49.67;101982.69;4942830;28;45309;-71
2023/06/27 03:20:27;;;;;;;;;5.00;4.00;;;;;17.17;52.00;101971.91;4939045;28;45445;-71
2023/06/27 03:22:52;;;;;;;;;4.00;4.00;;;;;17.22;51.57;101976.44;4943256;28;45294;-71
2023/06/27 03:25:18;;;;;;;;;2.33;2.33;;;;;17.20;52.98;101979.97;4939331;28;45468;-71
2023/06/27 03:27:43;;;;;;;;;5.33;3.00;;;;;17.08;50.57;101961.03;4939338;28;45325;-71
2023/06/27 03:30:09;;;;;;;;;2.67;2.67;;;;;17.13;51.42;101970.03;4936701;28;45309;-71
2023/06/27 03:32:35;;;;;;;;;2.67;1.00;;;;;17.17;52.65;101978.13;4943648;28;45432;-71
2023/06/27 03:35:00;;;;;;;;;3.67;3.67;;;;;17.11;52.32;101958.41;4941845;28;45498;-71
2023/06/27 03:37:26;;;;;;;;;4.00;3.00;;;;;17.13;52.40;101970.03;4950640;28;45349;-71
2023/06/27 03:39:52;;;;;;;;;3.00;3.00;;;;;17.12;52.65;101968.25;4943787;28;45220;-72
2023/06/27 03:42:18;;;;;;;;;4.00;4.00;;;;;17.12;52.37;101969.16;4942757;28;45199;-71
2023/06/27 03:44:43;;;;;;;;;4.33;4.00;;;;;16.93;51.78;101935.00;4941690;28;45433;-71
2023/06/27 03:47:09;;;;;;;;;2.67;2.67;;;;;16.95;52.42;101941.25;4940123;28;45338;-71
2023/06/27 03:49:34;;;;;;;;;3.67;3.67;;;;;17.05;52.68;101975.25;4945019;28;45254;-71
2023/06/27 03:51:59;;;;;;;;;3.67;3.67;;;;;17.04;53.29;101972.56;4944996;28;45306;-71
2023/06/27 03:54:25;;;;;;;;;4.00;3.00;;;;;17.02;53.41;101967.19;4945409;28;45451;-71
2023/06/27 03:56:50;;;;;;;;;4.67;3.00;;;;;17.00;52.24;101964.50;4946016;28;45242;-71
2023/06/27 03:59:16;;;;;;;;;7.00;4.00;;;;;16.92;53.22;101954.56;4939572;28;45855;-71
2023/06/27 04:01:41;;;;;;;;;3.00;2.00;;;;;16.98;52.50;101966.25;4942833;28;45385;-71
2023/06/27 04:04:08;;;;;;;;;1.00;1.00;;;;;16.84;52.86;101949.09;4945765;28;45430;-71
2023/06/27 04:06:33;;;;;;;;;4.67;3.33;;;;;16.94;54.24;101966.16;4939274;28;46208;-72
2023/06/27 04:09:00;;;;;;;;;3.33;3.33;;;;;16.91;54.14;101964.31;4952351;28;45214;-72
2023/06/27 04:11:25;;;;;;;;;7.00;3.33;;;;;16.94;54.71;101972.41;4942889;28;45416;-71
2023/06/27 04:13:51;;;;;;;;;4.33;3.00;;;;;16.69;53.83;101933.69;4944312;28;45420;-71
2023/06/27 04:16:16;;;;;;;;;4.33;2.67;;;;;16.89;52.77;101971.44;4948322;28;45276;-71
2023/06/27 04:18:42;;;;;;;;;4.33;2.67;;;;;16.82;54.09;101956.16;4957753;28;45262;-71
2023/06/27 04:21:07;;;;;;;;;4.33;3.33;;;;;16.92;54.07;101974.16;4941964;28;45471;-71
2023/06/27 04:23:32;;;;;;;;;4.00;4.00;;;;;16.95;54.31;101975.97;4959106;28;45408;-70
2023/06/27 04:26:03;;;;;;;;;4.67;4.67;;;;;16.93;54.19;101969.72;4944920;28;45512;-71
2023/06/27 04:28:30;;;;;;;;;5.00;4.00;;;;;16.97;54.18;101977.81;4949831;28;45174;-70
2023/06/27 04:30:56;;;;;;;;;2.67;2.67;;;;;16.93;52.90;101965.25;4946387;28;45234;-70
2023/06/27 04:33:22;;;;;;;;;3.33;2.00;;;;;16.97;54.28;101980.47;4955386;28;45345;-69
2023/06/27 04:35:47;;;;;;;;;4.33;4.33;;;;;16.95;54.00;101970.66;4946928;28;46311;-70
2023/06/27 04:38:14;;;;;;;;;5.67;2.67;;;;;17.01;53.92;101973.41;4944068;28;45508;-70
2023/06/27 04:40:41;;;;;;;;;2.00;2.00;;;;;17.04;54.87;101967.22;4936780;28;46837;-70
2023/06/27 04:43:07;;;;;;;;;4.00;4.00;;;;;17.07;54.57;101972.63;4946618;28;45336;-69
2023/06/27 04:45:32;;;;;;;;;4.33;3.00;;;;;17.02;54.26;101955.59;4938403;28;45450;-71
2023/06/27 04:47:57;;;;;;;;;5.33;3.33;;;;;17.15;54.59;101973.63;4953461;28;45315;-71
2023/06/27 04:50:22;;;;;;;;;3.67;2.33;;;;;17.07;54.03;101949.47;4943366;28;45645;-71
2023/06/27 04:52:48;;;;;;;;;6.00;4.00;;;;;17.12;52.88;101955.78;4946095;28;52338;-70
2023/06/27 04:55:13;;;;;;;;;2.00;2.00;;;;;17.13;54.31;101960.25;4940704;28;45199;-70
2023/06/27 04:57:39;;;;;;;;;4.33;4.33;;;;;17.17;53.79;101962.09;4941300;28;45254;-71
2023/06/27 05:00:06;;;;;;;;;6.33;4.67;;;;;17.07;54.45;101937.88;4940692;28;45414;-71
2023/06/27 05:02:31;;;;;;;;;9.00;6.33;;;;;17.24;53.90;101960.41;4951041;28;45482;-70
2023/06/27 05:04:56;;;;;;;;;6.67;6.67;;;;;17.27;54.54;101963.13;4941046;28;45195;-71
2023/06/27 05:07:22;;;;;;;;;9.33;7.00;;;;;17.26;54.55;101958.69;4936305;28;45247;-72
2023/06/27 05:09:48;;;;;;;;;6.67;6.67;;;;;17.27;54.74;101957.78;4939244;28;45242;-71
2023/06/27 05:12:13;;;;;;;;;6.33;5.00;;;;;17.39;54.68;101965.09;4940393;28;45349;-72
2023/06/27 05:14:38;;;;;;;;;6.00;6.00;;;;;17.39;54.41;101971.34;4939878;28;45840;-71
2023/06/27 05:17:04;;;;;;;;;4.00;4.00;;;;;17.29;54.32;101953.38;4949521;28;45684;-71
2023/06/27 05:19:29;;;;;;;;;5.33;5.33;;;;;17.34;52.93;101953.44;4947266;28;45456;-71
2023/06/27 05:21:54;;;;;;;;;5.67;4.33;;;;;17.43;55.16;101975.84;4951659;28;47116;-71
2023/06/27 05:24:20;;;;;;;;;7.33;5.67;;;;;17.45;55.02;101986.59;4945687;28;46709;-72
2023/06/27 05:26:45;;;;;;;;;5.67;4.67;;;;;17.39;54.86;101968.69;4949347;28;45907;-71
2023/06/27 05:29:10;;;;;;;;;5.67;4.67;;;;;17.53;54.24;101984.94;4949173;28;46378;-73
2023/06/27 05:31:36;;;;;;;;;5.33;5.00;;;;;17.39;55.27;101955.31;4942040;28;45426;-74
2023/06/27 05:34:01;;;;;;;;;6.00;4.33;;;;;17.62;55.12;101982.38;4949426;28;45928;-74
2023/06/27 05:36:26;;;;;;;;;4.00;4.00;;;;;17.66;55.28;101986.00;4951027;28;49075;-73
2023/06/27 05:38:52;;;;;;;;;3.67;3.67;;;;;17.71;54.47;101984.28;4951570;28;45455;-73
2023/06/27 05:41:18;;;;;;;;;4.67;4.00;;;;;17.71;54.40;101980.72;4945128;28;45356;-72
2023/06/27 05:43:47;;;;;;;;;5.00;5.00;;;;;17.77;54.56;101983.47;4940473;28;45306;-73
2023/06/27 05:46:12;;;;;;;;;4.67;4.00;;;;;17.76;54.79;101969.19;4941675;28;45310;-73
2023/06/27 05:48:38;;;;;;;;;6.33;4.67;;;;;17.79;54.02;101977.31;4956702;28;45327;-74
2023/06/27 05:51:03;;;;;;;;;6.33;6.00;;;;;17.68;55.47;101942.34;4941179;28;45517;-73
2023/06/27 05:53:28;;;;;;;;;13.33;8.67;;;;;17.87;56.43;101972.06;4955749;28;46088;-74
2023/06/27 05:55:54;;;;;;;;;3.33;3.33;;;;;17.94;55.53;101973.91;4952308;28;45500;-73
2023/06/27 05:58:19;;;;;;;;;7.67;6.33;;;;;17.97;54.55;101965.03;4949485;28;45433;-73
2023/06/27 06:00:44;;;;;;;;;3.33;3.33;;;;;18.02;54.30;101964.22;4947968;28;45558;-72
2023/06/27 06:03:10;;;;;;;;;5.00;3.00;;;;;17.94;55.40;101940.91;4948694;28;45341;-72
2023/06/27 06:05:35;;;;;;;;;4.33;3.00;;;;;18.12;53.61;101959.88;4941616;28;45266;-73
2023/06/27 06:08:00;;;;;;;;;4.67;3.67;;;;;18.28;53.48;101982.34;4948567;28;45396;-73
2023/06/27 06:10:26;;;;;;;;;5.33;4.33;;;;;18.27;53.54;101957.38;4946463;28;45450;-73
2023/06/27 06:12:51;;;;;;;;;3.00;2.33;;;;;18.42;54.87;101977.16;4945947;28;46270;-73
2023/06/27 06:15:17;;;;;;;;;2.67;2.67;;;;;18.50;54.13;101971.00;4936539;28;45375;-74
2023/06/27 06:17:42;;;;;;;;;3.00;3.00;;;;;18.54;53.62;101958.53;4943945;28;45566;-73
2023/06/27 06:20:11;;;;;;;;;5.00;3.67;;;;;18.55;53.84;101968.38;4936772;28;45350;-73
2023/06/27 06:22:37;;;;;;;;;4.67;3.00;;;;;18.63;53.33;101958.63;4942078;28;45950;-74
2023/06/27 06:25:03;;;;;;;;;6.00;3.67;;;;;18.79;54.05;101973.09;4937084;28;45295;-73
2023/06/27 06:27:29;;;;;;;;;4.33;4.33;;;;;18.87;53.15;101966.03;4943672;28;45416;-74
2023/06/27 06:29:54;;;;;;;;;3.67;3.67;;;;;18.95;54.45;101968.78;4947245;28;45266;-73
2023/06/27 06:32:19;;;;;;;;;8.33;4.67;;;;;18.88;53.27;101945.50;4941219;28;45412;-72
2023/06/27 06:34:45;;;;;;;;;4.33;4.33;;;;;19.04;53.26;101947.41;4943788;28;45334;-74
2023/06/27 06:37:10;;;;;;;;;4.33;3.33;;;;;19.28;52.40;101980.66;4939414;28;45446;-73
2023/06/27 06:39:35;;;;;;;;;7.33;6.00;;;;;19.40;53.29;101970.91;4935812;28;45546;-74
2023/06/27 06:42:01;;;;;;;;;5.33;4.33;;;;;19.51;52.69;101967.41;4951946;28;45580;-71
2023/06/27 06:44:26;;;;;;;;;4.67;4.67;;;;;19.68;52.90;101977.34;4936978;28;45550;-71
2023/06/27 06:46:52;;;;;;;;;5.00;3.33;;;;;19.87;52.77;101982.84;4933515;28;45888;-70
2023/06/27 06:49:17;;;;;;;;;4.33;4.33;;;;;19.84;52.49;101945.25;4931802;28;45453;-71
2023/06/27 06:51:42;;;;;;;;;2.67;2.33;;;;;20.23;52.55;101978.50;4934126;28;45416;-71
2023/06/27 06:54:08;;;;;;;;;6.00;3.00;;;;;20.46;52.46;101981.25;4934877;28;45532;-71
2023/06/27 06:56:33;;;;;;;;;7.67;5.67;;;;;20.55;51.26;101962.50;4930856;28;44838;-72
2023/06/27 06:58:59;;;;;;;;;2.67;2.33;;;;;20.88;50.75;101982.25;4937414;28;45389;-71
2023/06/27 07:01:24;;;;;;;;;3.33;2.67;;;;;20.94;50.71;101972.38;4931850;28;45437;-71
2023/06/27 07:03:50;;;;;;;;;7.67;4.67;;;;;21.17;50.20;101974.19;4935814;28;45238;-73
2023/06/27 07:06:15;;;;;;;;;6.33;3.67;;;;;21.37;49.76;101964.34;4928359;28;49149;-71
2023/06/27 07:08:40;;;;;;;;;6.00;3.67;;;;;21.59;49.32;101969.66;4937674;28;45250;-72
2023/06/27 07:11:06;;;;;;;;;6.33;3.00;;;;;21.74;48.93;101958.88;4928230;28;46291;-72
2023/06/27 07:13:31;;;;;;;;;7.67;3.33;;;;;21.97;48.71;101963.28;4931675;28;45229;-72
2023/06/27 07:15:56;;;;;;;;;3.00;3.00;;;;;21.99;48.36;101939.94;4926721;28;45673;-70
2023/06/27 07:18:22;;;;;;;;;4.33;4.33;;;;;22.19;48.54;101951.53;4923368;28;45468;-72
2023/06/27 07:20:47;;;;;;;;;3.33;3.00;;;;;22.48;47.91;101980.09;4929321;28;45231;-72
2023/06/27 07:23:14;;;;;;;;;4.33;4.00;;;;;22.67;47.27;101984.47;4927880;28;45295;-72
2023/06/27 07:25:39;;;;;;;;;5.00;3.67;;;;;22.86;46.91;101985.22;4936923;28;45377;-72
2023/06/27 07:28:05;;;;;;;;;7.33;4.00;;;;;23.06;46.67;101984.19;4931189;28;49994;-72
2023/06/27 07:30:30;;;;;;;;;8.67;4.00;;;;;23.19;46.03;101973.28;4935183;28;46123;-72
2023/06/27 07:32:55;;;;;;;;;3.67;2.00;;;;;23.43;46.64;101979.34;4932677;28;45448;-72
2023/06/27 07:35:21;;;;;;;;;2.67;2.00;;;;;23.72;45.62;101991.66;4935738;28;45414;-73
2023/06/27 07:40:21;;;;;;;;;6.00;3.67;;;;;24.12;44.72;101982.19;5041723;23;45521;-76
2023/06/27 07:42:47;;;;;;;;;6.67;4.67;;;;;24.25;44.50;101972.09;4944676;28;45457;-76
2023/06/27 07:45:12;;;;;;;;;6.75;4.00;;;;;24.46;44.48;101964.63;4947003;28;45277;-78
2023/06/27 07:47:37;;;;;;;;;5.00;4.00;;;;;24.53;44.10;101944.69;4947030;28;45150;-76
2023/06/27 07:50:03;;;;;;;;;4.00;4.00;;;;;24.84;43.94;101977.53;4950476;28;45547;-77
2023/06/27 07:52:30;;;;;;;;;4.00;4.00;;;;;24.70;43.33;101917.38;4945044;28;45181;-78
2023/06/27 07:54:55;;;;;;;;;3.75;3.50;;;;;25.19;42.54;101976.09;4956775;28;45285;-79
2023/06/27 07:57:20;;;;;;;;;4.75;3.00;;;;;25.17;42.91;101934.63;4953668;28;45255;-77
2023/06/27 07:59:46;;;;;;;;;3.25;1.75;;;;;25.23;41.97;101942.63;4955283;28;53609;-79
2023/06/27 08:02:11;;;;;;;;;3.50;3.00;;;;;25.54;41.36;101958.31;4959762;28;45511;-82
2023/06/27 08:04:36;;;;;;;;;4.00;3.00;;;;;25.58;41.04;101941.97;4953058;28;45325;-77
2023/06/27 08:07:02;;;;;;;;;4.00;2.00;;;;;25.77;41.33;101931.66;4946135;28;45356;-80
2023/06/27 08:09:27;;;;;;;;;3.00;2.00;;;;;26.09;42.42;101951.78;4951154;28;47988;-80
2023/06/27 08:11:54;;;;;;;;;2.50;2.50;;;;;26.13;39.38;101964.31;4955857;28;45465;-78
2023/06/27 08:14:19;;;;;;;;;4.25;2.25;;;;;26.11;40.43;101934.56;4952354;28;45668;-80
2023/06/27 08:16:45;;;;;;;;;4.50;3.00;;;;;26.15;40.87;101899.25;4959760;28;45225;-82
2023/06/27 08:19:10;;;;;;;;;3.75;2.75;;;;;26.50;38.51;101929.19;4956568;28;45579;-81
2023/06/27 08:21:35;;;;;;;;;4.50;2.00;;;;;26.79;39.92;101944.72;4954731;28;45307;-81
2023/06/27 08:24:00;;;;;;;;;3.50;3.50;;;;;27.04;39.32;101963.13;4958823;28;45459;-83
2023/06/27 08:26:26;;;;;;;;;1.25;1.25;;;;;26.94;36.91;101929.00;4950094;28;45421;-79
2023/06/27 08:28:52;;;;;;;;;1.25;1.25;;;;;27.21;37.74;101933.72;4958899;28;45502;-79
2023/06/27 08:31:18;;;;;;;;;2.50;2.50;;;;;27.50;36.84;101947.44;4954333;28;45258;-77
2023/06/27 08:33:43;;;;;;;;;4.00;2.00;;;;;27.54;36.27;101914.72;4957894;28;45310;-77
2023/06/27 08:36:08;;;;;;;;;2.00;2.00;;;;;27.87;36.43;101929.19;4955660;28;45280;-80
2023/06/27 08:38:34;;;;;;;;;1.50;1.00;;;;;27.68;35.86;101857.28;4958366;28;46518;-81
2023/06/27 08:41:01;;;;;;;;;4.25;2.75;;;;;28.31;36.34;101943.22;4958623;28;45394;-80
2023/06/27 08:43:26;;;;;;;;;3.50;3.00;;;;;28.44;36.35;101932.88;4958709;28;45503;-78
2023/06/27 08:45:54;;;;;;;;;3.50;2.00;;;;;28.60;37.39;101936.00;4959053;28;45512;-80
2023/06/27 08:48:20;;;;;;;;;4.00;3.00;;;;;28.52;36.30;101914.47;4957438;28;45794;-81
2023/06/27 08:50:48;;;;;;;;;3.00;2.80;;;;;28.75;36.63;101934.59;4953684;28;45402;-80
2023/06/27 08:53:14;;;;;;;;;2.75;2.00;;;;;28.97;34.15;101946.53;4958264;28;45221;-80
2023/06/27 08:56:07;;;;;;;;;3.75;1.00;;;;;29.19;35.14;101937.66;4955210;28;45482;-79
2023/06/27 08:58:59;;;;;;;;;1.25;1.25;;;;;29.36;35.90;101940.66;4958137;28;45220;-79
2023/06/27 09:01:29;;;;;;;;;4.00;1.00;;;;;29.42;34.87;101915.91;4953689;28;45260;-81
2023/06/27 09:03:55;;;;;;;;;2.25;2.25;;;;;29.79;35.27;101940.94;4955457;28;45437;-78
2023/06/27 09:06:20;;;;;;;;;4.00;3.00;;;;;29.65;32.00;101876.91;4946769;28;45384;-77
2023/06/27 09:08:45;;;;;;;;;2.25;1.25;;;;;30.05;32.05;101927.19;4946500;28;45931;-78
2023/06/27 09:11:11;;;;;;;;;2.25;2.25;;;;;29.93;32.80;101886.75;4952016;28;45445;-76
2023/06/27 09:13:37;;;;;;;;;2.75;1.50;;;;;30.15;31.60;101919.53;4958563;28;44836;-75
2023/06/27 09:16:04;;;;;;;;;3.80;1.80;;;;;30.16;31.39;101907.66;4959896;28;45530;-75
2023/06/27 09:18:29;;;;;;;;;3.20;2.00;;;;;30.17;31.57;101894.94;4958062;28;45636;-76
2023/06/27 09:20:56;;;;;;;;;2.00;2.00;;;;;30.21;32.38;101886.53;4960257;28;45287;-76
2023/06/27 09:23:22;;;;;;;;;2.20;2.20;;;;;30.21;30.88;101889.28;4958899;28;45581;-76
2023/06/27 09:26:05;;;;;;;;;4.20;2.20;;;;;30.27;32.33;101882.69;4950485;28;45540;-76
2023/06/27 09:28:30;;;;;;;;;1.20;1.20;;;;;30.33;30.31;101877.00;4954568;28;46364;-75
2023/06/27 09:30:57;;;;;;;;;2.00;2.00;;;;;30.36;29.86;101859.59;4960395;28;46626;-74
2023/06/27 09:33:23;;;;;;;;;1.40;1.40;;;;;30.59;29.59;101889.56;4959158;28;45325;-76
2023/06/27 09:35:48;;;;;;;;;3.00;2.00;;;;;30.48;29.71;101884.56;4953880;28;45423;-76
2023/06/27 09:38:14;;;;;;;;;2.25;1.25;;;;;30.41;30.32;101883.03;4959592;28;45895;-76
2023/06/27 09:40:41;;;;;;;;;2.50;1.25;;;;;30.49;29.78;101893.63;4951603;28;45456;-77
2023/06/27 09:43:07;;;;;;;;;3.00;0.20;;;;;30.45;32.18;101876.50;4959013;28;45342;-78
2023/06/27 09:45:33;;;;;;;;;4.00;2.00;;;;;30.41;29.14;101872.09;4950664;28;45354;-76
2023/06/27 09:47:58;;;;;;;;;1.75;1.75;;;;;30.50;30.00;101854.47;4958555;28;46527;-74
2023/06/27 09:50:31;;;;;;;;;4.00;2.50;;;;;30.76;30.33;101864.28;4951654;28;45319;-77
2023/06/27 09:53:01;;;;;;;;;3.80;3.00;;;;;30.86;30.92;101860.19;4969625;28;45466;-74
2023/06/27 09:55:27;;;;;;;;;2.00;2.00;;;;;31.12;30.29;101880.91;4944571;28;45534;-78
2023/06/27 09:57:53;;;;;;;;;1.25;1.25;;;;;31.14;27.95;101865.31;4953337;28;45411;-75
2023/06/27 10:00:20;;;;;;;;;2.00;1.25;;;;;31.47;28.36;101866.63;4947606;28;45294;-74
2023/06/27 10:02:50;;;;;;;;;3.80;2.00;;;;;31.71;28.18;101879.16;4953379;28;45388;-73
2023/06/27 10:05:20;;;;;;;;;3.00;1.80;;;;;31.84;27.70;101860.31;4949751;28;45537;-74
2023/06/27 10:07:47;;;;;;;;;1.00;1.00;;;;;32.05;28.77;101870.25;4960701;28;45378;-74
2023/06/27 10:10:14;;;;;;;;;2.00;1.20;;;;;32.10;27.50;101849.03;4947978;28;45426;-76
2023/06/27 10:12:41;;;;;;;;;3.20;2.00;;;;;32.35;29.49;101866.06;4960504;28;45427;-75
2023/06/27 10:15:08;;;;;;;;;1.80;1.20;;;;;32.22;27.14;101831.09;4954126;28;45385;-75
2023/06/27 10:17:34;;;;;;;;;3.40;2.20;;;;;32.58;28.57;101854.00;4960085;28;45484;-74
2023/06/27 10:19:59;;;;;;;;;1.25;1.25;;;;;32.68;28.13;101863.47;4954319;28;45337;-74
2023/06/27 10:22:30;;;;;;;;;0.75;0.75;;;;;32.45;27.06;101837.25;4958060;28;45435;-75
2023/06/27 10:25:01;;;;;;;;;1.00;1.00;;;;;32.47;27.51;101846.31;4953868;28;45584;-74
2023/06/27 10:27:27;;;;;;;;;1.40;1.40;;;;;32.56;26.55;101866.88;4950855;28;48290;-76
2023/06/27 10:29:52;;;;;;;;;1.50;1.50;;;;;32.46;27.76;101830.84;4953113;28;45662;-75
2023/06/27 10:32:19;;;;;;;;;1.25;0.25;;;;;32.53;27.52;101851.47;4974213;28;45369;-74
2023/06/27 10:34:45;;;;;;;;;0.80;0.80;;;;;32.44;26.85;101849.19;4955495;28;45574;-74
2023/06/27 10:37:20;;;;;;;;;3.00;2.00;;;;;32.46;25.42;101844.53;4956608;28;45376;-74
2023/06/27 10:39:58;;;;;;;;;1.80;1.20;;;;;32.64;25.81;101840.88;4955904;28;45917;-74
2023/06/27 10:42:23;;;;;;;;;2.20;1.20;;;;;32.95;24.50;101872.13;4958114;28;45356;-74
2023/06/27 10:45:09;;;;;;;;;2.25;1.00;;;;;32.96;25.30;101851.97;4955351;28;45264;-74
2023/06/27 10:47:38;;;;;;;;;4.80;4.80;;;;;33.12;25.15;101858.44;4949444;28;47169;-75
2023/06/27 10:50:05;;;;;;;;;1.60;1.20;;;;;33.23;25.65;101851.50;4951381;28;45358;-74
2023/06/27 10:52:30;;;;;;;;;2.00;1.00;;;;;33.27;26.37;101851.22;4958771;28;45254;-73
2023/06/27 10:55:15;;;;;;;;;2.25;2.00;;;;;32.97;26.07;101871.06;4952504;28;45583;-74
2023/06/27 10:57:43;;;;;;;;;3.00;1.80;;;;;32.41;25.37;101835.66;4953485;28;45623;-76
2023/06/27 11:00:15;;;;;;;;;1.00;1.00;;;;;32.69;25.14;101873.50;4955293;28;45432;-74
2023/06/27 11:02:45;;;;;;;;;0.60;0.40;;;;;32.90;25.97;101863.25;4959662;28;45254;-75
2023/06/27 11:05:16;;;;;;;;;1.00;1.00;;;;;33.04;24.05;101841.53;4952523;28;45392;-75
2023/06/27 11:07:58;;;;;;;;;3.20;1.40;;;;;33.33;25.42;101853.66;4943618;28;46651;-78
2023/06/27 11:10:31;;;;;;;;;2.20;1.20;;;;;33.47;24.65;101863.88;4960491;28;45310;-76
2023/06/27 11:13:21;;;;;;;;;1.20;1.20;;;;;33.41;24.93;101856.88;4953300;28;45757;-76
2023/06/27 11:15:48;;;;;;;;;0.20;0.20;;;;;33.33;25.89;101850.94;4957252;28;45832;-80
2023/06/27 11:18:14;;;;;;;;;1.80;0.40;;;;;33.37;25.11;101835.19;4957623;28;45435;-76
2023/06/27 11:20:41;;;;;;;;;1.00;0.40;;;;;33.36;23.62;101845.28;4953894;28;45499;-78
2023/06/27 11:23:06;;;;;;;;;1.20;1.20;;;;;33.31;22.64;101836.41;4955829;28;45390;-75
2023/06/27 11:25:36;;;;;;;;;2.50;2.50;;;;;33.00;23.61;101807.06;4955905;28;45316;-76